sensor_id;sensor_type;location;lat;lon;timestamp;temperature;humidity
1592;DHT22;789;51.612;7.510;2022-08-19T00:01:50;21.80;1.00
1592;DHT22;789;51.612;7.510;2022-08-19T00:04:20;21.80;1.00
1592;DHT22;789;51.612;7.510;2022-08-19T00:06:47;21.80;1.00
1592;DHT22;789;51.612;7.510;2022-08-19T00:09:18;21.80;1.00
1592;DHT22;789;51.612;7.510;2022-08-19T00:11:45;21.80;1.00
1592;DHT22;789;51.612;7.510;2022-08-19T00:14:14;21.80;1.00
1592;DHT22;789;51.612;7.510;2022-08-19T00:16:42;21.70;1.00
1592;DHT22;789;51.612;7.510;2022-08-19T00:19:09;21.70;1.00
1592;DHT22;789;51.612;7.510;2022-08-19T00:21:36;21.70;1.00
1592;DHT22;789;51.612;7.510;2022-08-19T00:24:05;21.70;1.00
1592;DHT22;789;51.612;7.510;2022-08-19T00:26:35;21.60;1.00
1592;DHT22;789;51.612;7.510;2022-08-19T00:29:03;21.60;1.00
1592;DHT22;789;51.612;7.510;2022-08-19T00:31:30;21.60;1.00
1592;DHT22;789;51.612;7.510;2022-08-19T00:33:57;21.60;1.00
1592;DHT22;789;51.612;7.510;2022-08-19T00:36:24;21.50;1.00
1592;DHT22;789;51.612;7.510;2022-08-19T00:38:51;21.50;1.00
1592;DHT22;789;51.612;7.510;2022-08-19T00:41:21;21.50;1.00
1592;DHT22;789;51.612;7.510;2022-08-19T00:44:03;21.50;1.00
1592;DHT22;789;51.612;7.510;2022-08-19T00:46:31;21.50;1.00
1592;DHT22;789;51.612;7.510;2022-08-19T00:48:59;21.50;1.00
1592;DHT22;789;51.612;7.510;2022-08-19T00:51:29;21.40;1.00
1592;DHT22;789;51.612;7.510;2022-08-19T00:53:58;21.40;1.00
1592;DHT22;789;51.612;7.510;2022-08-19T00:56:26;21.40;1.00
1592;DHT22;789;51.612;7.510;2022-08-19T00:58:55;21.40;1.00
1592;DHT22;789;51.612;7.510;2022-08-19T01:01:24;21.40;1.00
1592;DHT22;789;51.612;7.510;2022-08-19T01:03:50;21.40;1.00
1592;DHT22;789;51.612;7.510;2022-08-19T01:06:17;21.40;1.00
1592;DHT22;789;51.612;7.510;2022-08-19T01:08:44;21.30;1.00
1592;DHT22;789;51.612;7.510;2022-08-19T01:11:11;21.30;1.00
1592;DHT22;789;51.612;7.510;2022-08-19T01:13:38;21.30;1.00
1592;DHT22;789;51.612;7.510;2022-08-19T01:16:11;21.30;1.00
1592;DHT22;789;51.612;7.510;2022-08-19T01:18:41;21.30;1.00
1592;DHT22;789;51.612;7.510;2022-08-19T01:21:12;21.20;1.00
1592;DHT22;789;51.612;7.510;2022-08-19T01:23:43;21.20;1.00
1592;DHT22;789;51.612;7.510;2022-08-19T01:26:12;21.20;1.00
1592;DHT22;789;51.612;7.510;2022-08-19T01:28:41;21.20;1.00
1592;DHT22;789;51.612;7.510;2022-08-19T01:31:10;21.10;1.00
1592;DHT22;789;51.612;7.510;2022-08-19T01:33:38;21.10;1.00
1592;DHT22;789;51.612;7.510;2022-08-19T01:36:08;21.10;1.00
1592;DHT22;789;51.612;7.510;2022-08-19T01:38:37;21.10;1.00
1592;DHT22;789;51.612;7.510;2022-08-19T01:41:06;21.00;1.00
1592;DHT22;789;51.612;7.510;2022-08-19T01:43:33;21.00;1.00
1592;DHT22;789;51.612;7.510;2022-08-19T01:46:00;20.90;1.00
1592;DHT22;789;51.612;7.510;2022-08-19T01:48:33;20.90;1.00
1592;DHT22;789;51.612;7.510;2022-08-19T01:51:00;20.90;1.00
1592;DHT22;789;51.612;7.510;2022-08-19T01:53:27;20.90;1.00
1592;DHT22;789;51.612;7.510;2022-08-19T01:55:54;20.90;1.00
1592;DHT22;789;51.612;7.510;2022-08-19T01:58:27;20.80;1.00
1592;DHT22;789;51.612;7.510;2022-08-19T02:00:56;20.80;1.00
1592;DHT22;789;51.612;7.510;2022-08-19T02:03:23;20.80;1.00
1592;DHT22;789;51.612;7.510;2022-08-19T02:05:54;20.80;1.00
1592;DHT22;789;51.612;7.510;2022-08-19T02:08:22;20.80;1.00
1592;DHT22;789;51.612;7.510;2022-08-19T02:10:48;20.80;1.00
1592;DHT22;789;51.612;7.510;2022-08-19T02:13:16;20.70;1.00
1592;DHT22;789;51.612;7.510;2022-08-19T02:15:44;20.70;1.00
1592;DHT22;789;51.612;7.510;2022-08-19T02:18:11;20.70;1.00
1592;DHT22;789;51.612;7.510;2022-08-19T02:20:40;20.70;1.00
1592;DHT22;789;51.612;7.510;2022-08-19T02:23:07;20.60;1.00
1592;DHT22;789;51.612;7.510;2022-08-19T02:25:34;20.60;1.00
1592;DHT22;789;51.612;7.510;2022-08-19T02:28:01;20.50;1.00
1592;DHT22;789;51.612;7.510;2022-08-19T02:30:28;20.50;1.00
1592;DHT22;789;51.612;7.510;2022-08-19T02:32:56;20.40;1.00
1592;DHT22;789;51.612;7.510;2022-08-19T02:35:24;20.40;1.00
1592;DHT22;789;51.612;7.510;2022-08-19T02:37:51;20.40;1.00
1592;DHT22;789;51.612;7.510;2022-08-19T02:40:35;20.40;1.00
1592;DHT22;789;51.612;7.510;2022-08-19T02:43:02;20.40;1.00
1592;DHT22;789;51.612;7.510;2022-08-19T02:45:32;20.40;1.00
1592;DHT22;789;51.612;7.510;2022-08-19T02:48:01;20.40;1.00
1592;DHT22;789;51.612;7.510;2022-08-19T02:50:28;20.40;1.00
1592;DHT22;789;51.612;7.510;2022-08-19T02:52:54;20.40;1.00
1592;DHT22;789;51.612;7.510;2022-08-19T02:55:21;20.40;1.00
1592;DHT22;789;51.612;7.510;2022-08-19T02:57:48;20.40;1.00
1592;DHT22;789;51.612;7.510;2022-08-19T03:00:16;20.30;1.00
1592;DHT22;789;51.612;7.510;2022-08-19T03:02:43;20.30;1.00
1592;DHT22;789;51.612;7.510;2022-08-19T03:05:14;20.30;1.00
1592;DHT22;789;51.612;7.510;2022-08-19T03:07:41;20.30;1.00
1592;DHT22;789;51.612;7.510;2022-08-19T03:10:09;20.30;1.00
1592;DHT22;789;51.612;7.510;2022-08-19T03:12:36;20.20;1.00
1592;DHT22;789;51.612;7.510;2022-08-19T03:15:05;20.20;1.00
1592;DHT22;789;51.612;7.510;2022-08-19T03:17:33;20.20;1.00
1592;DHT22;789;51.612;7.510;2022-08-19T03:19:59;20.20;1.00
1592;DHT22;789;51.612;7.510;2022-08-19T03:22:28;20.10;1.00
1592;DHT22;789;51.612;7.510;2022-08-19T03:24:55;20.10;1.00
1592;DHT22;789;51.612;7.510;2022-08-19T03:27:22;20.10;1.00
1592;DHT22;789;51.612;7.510;2022-08-19T03:29:49;20.10;1.00
1592;DHT22;789;51.612;7.510;2022-08-19T03:32:16;20.10;1.00
1592;DHT22;789;51.612;7.510;2022-08-19T03:34:43;20.10;1.00
1592;DHT22;789;51.612;7.510;2022-08-19T03:37:11;20.00;1.00
1592;DHT22;789;51.612;7.510;2022-08-19T03:39:40;20.00;1.00
1592;DHT22;789;51.612;7.510;2022-08-19T03:42:10;20.10;1.00
1592;DHT22;789;51.612;7.510;2022-08-19T03:44:37;19.90;1.00
1592;DHT22;789;51.612;7.510;2022-08-19T03:47:04;19.90;1.00
1592;DHT22;789;51.612;7.510;2022-08-19T03:49:32;20.00;1.00
1592;DHT22;789;51.612;7.510;2022-08-19T03:52:00;19.90;1.00
1592;DHT22;789;51.612;7.510;2022-08-19T03:54:28;19.90;1.00
1592;DHT22;789;51.612;7.510;2022-08-19T03:56:57;19.90;1.00
1592;DHT22;789;51.612;7.510;2022-08-19T03:59:27;19.90;1.00
1592;DHT22;789;51.612;7.510;2022-08-19T04:01:55;19.90;1.00
1592;DHT22;789;51.612;7.510;2022-08-19T04:04:22;19.80;1.00
1592;DHT22;789;51.612;7.510;2022-08-19T04:06:50;19.90;1.00
1592;DHT22;789;51.612;7.510;2022-08-19T04:09:17;19.80;1.00
1592;DHT22;789;51.612;7.510;2022-08-19T04:11:48;19.80;1.00
1592;DHT22;789;51.612;7.510;2022-08-19T04:14:19;19.80;1.00
1592;DHT22;789;51.612;7.510;2022-08-19T04:16:47;19.80;1.00
1592;DHT22;789;51.612;7.510;2022-08-19T04:19:15;19.80;1.00
1592;DHT22;789;51.612;7.510;2022-08-19T04:21:43;19.80;1.00
1592;DHT22;789;51.612;7.510;2022-08-19T04:24:30;19.80;1.00
1592;DHT22;789;51.612;7.510;2022-08-19T04:26:59;19.80;1.00
1592;DHT22;789;51.612;7.510;2022-08-19T04:29:27;19.80;1.00
1592;DHT22;789;51.612;7.510;2022-08-19T04:31:56;19.80;1.00
1592;DHT22;789;51.612;7.510;2022-08-19T04:34:25;19.90;1.00
1592;DHT22;789;51.612;7.510;2022-08-19T04:36:55;19.80;1.00
1592;DHT22;789;51.612;7.510;2022-08-19T04:39:24;19.90;1.00
1592;DHT22;789;51.612;7.510;2022-08-19T04:42:13;19.90;1.00
1592;DHT22;789;51.612;7.510;2022-08-19T04:45:05;19.90;1.00
1592;DHT22;789;51.612;7.510;2022-08-19T04:47:33;19.90;1.00
1592;DHT22;789;51.612;7.510;2022-08-19T04:49:59;19.90;1.00
1592;DHT22;789;51.612;7.510;2022-08-19T04:52:29;20.00;1.00
1592;DHT22;789;51.612;7.510;2022-08-19T04:54:57;20.00;1.00
1592;DHT22;789;51.612;7.510;2022-08-19T04:57:24;19.90;1.00
1592;DHT22;789;51.612;7.510;2022-08-19T04:59:54;20.10;1.00
1592;DHT22;789;51.612;7.510;2022-08-19T05:02:22;20.00;1.00
1592;DHT22;789;51.612;7.510;2022-08-19T05:04:50;20.00;1.00
1592;DHT22;789;51.612;7.510;2022-08-19T05:07:17;20.00;1.00
1592;DHT22;789;51.612;7.510;2022-08-19T05:09:44;20.00;1.00
1592;DHT22;789;51.612;7.510;2022-08-19T05:12:11;20.00;1.00
1592;DHT22;789;51.612;7.510;2022-08-19T05:14:37;20.10;1.00
1592;DHT22;789;51.612;7.510;2022-08-19T05:17:04;20.20;1.00
1592;DHT22;789;51.612;7.510;2022-08-19T05:19:32;20.20;1.00
1592;DHT22;789;51.612;7.510;2022-08-19T05:22:16;20.20;1.00
1592;DHT22;789;51.612;7.510;2022-08-19T05:25:03;20.30;1.00
1592;DHT22;789;51.612;7.510;2022-08-19T05:27:31;20.40;1.00
1592;DHT22;789;51.612;7.510;2022-08-19T05:29:58;20.50;1.00
1592;DHT22;789;51.612;7.510;2022-08-19T05:32:25;20.50;1.00
1592;DHT22;789;51.612;7.510;2022-08-19T05:34:54;20.60;1.00
1592;DHT22;789;51.612;7.510;2022-08-19T05:37:20;20.70;1.00
1592;DHT22;789;51.612;7.510;2022-08-19T05:39:48;20.70;1.00
1592;DHT22;789;51.612;7.510;2022-08-19T05:42:15;20.70;1.00
1592;DHT22;789;51.612;7.510;2022-08-19T05:44:43;20.60;1.00
1592;DHT22;789;51.612;7.510;2022-08-19T05:47:11;20.70;1.00
1592;DHT22;789;51.612;7.510;2022-08-19T05:49:39;20.70;1.00
1592;DHT22;789;51.612;7.510;2022-08-19T05:52:11;20.80;1.00
1592;DHT22;789;51.612;7.510;2022-08-19T05:54:39;20.90;1.00
1592;DHT22;789;51.612;7.510;2022-08-19T05:57:07;20.90;1.00
1592;DHT22;789;51.612;7.510;2022-08-19T05:59:34;21.00;1.00
1592;DHT22;789;51.612;7.510;2022-08-19T06:02:03;21.00;1.00
1592;DHT22;789;51.612;7.510;2022-08-19T06:04:30;21.10;1.00
1592;DHT22;789;51.612;7.510;2022-08-19T06:06:57;21.20;1.00
1592;DHT22;789;51.612;7.510;2022-08-19T06:09:25;21.20;1.00
1592;DHT22;789;51.612;7.510;2022-08-19T06:11:54;21.30;1.00
1592;DHT22;789;51.612;7.510;2022-08-19T06:14:39;21.40;1.00
1592;DHT22;789;51.612;7.510;2022-08-19T06:17:06;21.60;1.00
1592;DHT22;789;51.612;7.510;2022-08-19T06:19:33;21.70;1.00
1592;DHT22;789;51.612;7.510;2022-08-19T06:22:00;21.80;1.00
1592;DHT22;789;51.612;7.510;2022-08-19T06:24:29;21.80;1.00
1592;DHT22;789;51.612;7.510;2022-08-19T06:26:58;21.80;1.00
1592;DHT22;789;51.612;7.510;2022-08-19T06:29:26;21.80;1.00
1592;DHT22;789;51.612;7.510;2022-08-19T06:31:57;21.70;1.00
1592;DHT22;789;51.612;7.510;2022-08-19T06:34:24;21.80;1.00
1592;DHT22;789;51.612;7.510;2022-08-19T06:36:53;21.80;1.00
1592;DHT22;789;51.612;7.510;2022-08-19T06:39:22;21.80;1.00
1592;DHT22;789;51.612;7.510;2022-08-19T06:41:52;21.80;1.00
1592;DHT22;789;51.612;7.510;2022-08-19T06:44:20;21.80;1.00
1592;DHT22;789;51.612;7.510;2022-08-19T06:46:47;21.90;1.00
1592;DHT22;789;51.612;7.510;2022-08-19T06:49:16;21.90;1.00
1592;DHT22;789;51.612;7.510;2022-08-19T06:51:44;22.00;1.00
1592;DHT22;789;51.612;7.510;2022-08-19T06:54:14;22.00;1.00
1592;DHT22;789;51.612;7.510;2022-08-19T06:56:41;22.10;1.00
1592;DHT22;789;51.612;7.510;2022-08-19T06:59:11;22.20;1.00
1592;DHT22;789;51.612;7.510;2022-08-19T07:01:41;22.30;1.00
1592;DHT22;789;51.612;7.510;2022-08-19T07:04:12;22.40;1.00
1592;DHT22;789;51.612;7.510;2022-08-19T07:06:41;22.60;1.00
1592;DHT22;789;51.612;7.510;2022-08-19T07:09:10;22.90;1.00
1592;DHT22;789;51.612;7.510;2022-08-19T07:11:38;23.10;1.00
1592;DHT22;789;51.612;7.510;2022-08-19T07:14:05;23.20;1.00
1592;DHT22;789;51.612;7.510;2022-08-19T07:16:34;23.40;1.00
1592;DHT22;789;51.612;7.510;2022-08-19T07:19:00;23.60;1.00
1592;DHT22;789;51.612;7.510;2022-08-19T07:21:28;23.70;1.00
1592;DHT22;789;51.612;7.510;2022-08-19T07:23:56;23.90;1.00
1592;DHT22;789;51.612;7.510;2022-08-19T07:26:24;24.20;1.00
1592;DHT22;789;51.612;7.510;2022-08-19T07:28:52;24.40;1.00
1592;DHT22;789;51.612;7.510;2022-08-19T07:31:21;24.60;1.00
1592;DHT22;789;51.612;7.510;2022-08-19T07:33:51;24.80;1.00
1592;DHT22;789;51.612;7.510;2022-08-19T07:36:23;25.10;1.00
1592;DHT22;789;51.612;7.510;2022-08-19T07:38:51;25.40;1.00
1592;DHT22;789;51.612;7.510;2022-08-19T07:41:23;25.80;1.00
1592;DHT22;789;51.612;7.510;2022-08-19T07:43:50;26.20;1.00
1592;DHT22;789;51.612;7.510;2022-08-19T07:46:18;26.40;1.00
1592;DHT22;789;51.612;7.510;2022-08-19T07:48:47;26.60;1.00
1592;DHT22;789;51.612;7.510;2022-08-19T07:51:18;26.70;1.00
1592;DHT22;789;51.612;7.510;2022-08-19T07:53:47;26.70;1.00
1592;DHT22;789;51.612;7.510;2022-08-19T07:56:17;26.50;1.00
1592;DHT22;789;51.612;7.510;2022-08-19T07:58:46;26.60;1.00
1592;DHT22;789;51.612;7.510;2022-08-19T08:01:15;26.80;1.00
1592;DHT22;789;51.612;7.510;2022-08-19T08:03:44;26.90;1.00
1592;DHT22;789;51.612;7.510;2022-08-19T08:06:30;27.00;1.00
1592;DHT22;789;51.612;7.510;2022-08-19T08:09:16;27.20;1.00
1592;DHT22;789;51.612;7.510;2022-08-19T08:11:49;27.50;1.00
1592;DHT22;789;51.612;7.510;2022-08-19T08:14:18;27.60;1.00
1592;DHT22;789;51.612;7.510;2022-08-19T08:17:05;27.90;1.00
1592;DHT22;789;51.612;7.510;2022-08-19T08:19:32;28.20;1.00
1592;DHT22;789;51.612;7.510;2022-08-19T08:22:02;28.60;1.00
1592;DHT22;789;51.612;7.510;2022-08-19T08:24:31;29.10;1.00
1592;DHT22;789;51.612;7.510;2022-08-19T08:26:59;29.50;1.00
1592;DHT22;789;51.612;7.510;2022-08-19T08:29:27;30.10;1.00
1592;DHT22;789;51.612;7.510;2022-08-19T08:31:55;30.40;1.00
1592;DHT22;789;51.612;7.510;2022-08-19T08:34:22;30.90;1.00
1592;DHT22;789;51.612;7.510;2022-08-19T08:36:49;31.40;1.00
1592;DHT22;789;51.612;7.510;2022-08-19T08:39:20;31.80;1.00
1592;DHT22;789;51.612;7.510;2022-08-19T08:42:08;31.70;1.00
1592;DHT22;789;51.612;7.510;2022-08-19T08:44:48;32.60;1.00
1592;DHT22;789;51.612;7.510;2022-08-19T08:47:18;33.40;1.00
1592;DHT22;789;51.612;7.510;2022-08-19T08:49:49;34.00;1.00
1592;DHT22;789;51.612;7.510;2022-08-19T08:52:21;34.80;1.00
1592;DHT22;789;51.612;7.510;2022-08-19T08:54:52;35.60;1.00
1592;DHT22;789;51.612;7.510;2022-08-19T08:57:23;36.10;1.00
1592;DHT22;789;51.612;7.510;2022-08-19T08:59:53;36.50;1.00
1592;DHT22;789;51.612;7.510;2022-08-19T09:02:20;37.30;1.00
1592;DHT22;789;51.612;7.510;2022-08-19T09:04:47;37.80;1.00
1592;DHT22;789;51.612;7.510;2022-08-19T09:07:36;37.40;1.00
1592;DHT22;789;51.612;7.510;2022-08-19T09:10:16;37.40;1.00
1592;DHT22;789;51.612;7.510;2022-08-19T09:12:52;37.70;1.00
1592;DHT22;789;51.612;7.510;2022-08-19T09:15:25;38.00;1.00
1592;DHT22;789;51.612;7.510;2022-08-19T09:17:53;38.20;1.00
1592;DHT22;789;51.612;7.510;2022-08-19T09:20:23;37.80;1.00
1592;DHT22;789;51.612;7.510;2022-08-19T09:22:50;38.00;1.00
1592;DHT22;789;51.612;7.510;2022-08-19T09:25:20;38.60;1.00
1592;DHT22;789;51.612;7.510;2022-08-19T09:27:49;39.10;1.00
1592;DHT22;789;51.612;7.510;2022-08-19T09:30:19;39.60;1.00
1592;DHT22;789;51.612;7.510;2022-08-19T09:32:48;40.30;1.00
1592;DHT22;789;51.612;7.510;2022-08-19T09:35:15;40.60;1.00
1592;DHT22;789;51.612;7.510;2022-08-19T09:37:42;40.60;1.00
1592;DHT22;789;51.612;7.510;2022-08-19T09:40:11;39.90;1.00
1592;DHT22;789;51.612;7.510;2022-08-19T09:42:39;38.70;1.00
1592;DHT22;789;51.612;7.510;2022-08-19T09:45:09;37.20;1.00
1592;DHT22;789;51.612;7.510;2022-08-19T09:47:36;36.00;1.00
1592;DHT22;789;51.612;7.510;2022-08-19T09:50:05;35.00;1.00
1592;DHT22;789;51.612;7.510;2022-08-19T09:52:32;34.00;1.00
1592;DHT22;789;51.612;7.510;2022-08-19T09:55:02;33.60;1.00
1592;DHT22;789;51.612;7.510;2022-08-19T09:57:28;34.50;1.00
1592;DHT22;789;51.612;7.510;2022-08-19T09:59:57;36.00;1.00
1592;DHT22;789;51.612;7.510;2022-08-19T10:02:24;37.60;1.00
1592;DHT22;789;51.612;7.510;2022-08-19T10:04:51;39.20;1.00
1592;DHT22;789;51.612;7.510;2022-08-19T10:07:35;39.30;1.00
1592;DHT22;789;51.612;7.510;2022-08-19T10:10:02;38.60;1.00
1592;DHT22;789;51.612;7.510;2022-08-19T10:12:30;37.70;1.00
1592;DHT22;789;51.612;7.510;2022-08-19T10:14:59;37.00;1.00
1592;DHT22;789;51.612;7.510;2022-08-19T10:17:26;36.40;1.00
1592;DHT22;789;51.612;7.510;2022-08-19T10:19:54;35.60;1.00
1592;DHT22;789;51.612;7.510;2022-08-19T10:22:21;34.80;1.00
1592;DHT22;789;51.612;7.510;2022-08-19T10:24:48;34.30;1.00
1592;DHT22;789;51.612;7.510;2022-08-19T10:27:15;34.60;1.00
1592;DHT22;789;51.612;7.510;2022-08-19T10:29:42;34.70;1.00
1592;DHT22;789;51.612;7.510;2022-08-19T10:32:10;34.50;1.00
1592;DHT22;789;51.612;7.510;2022-08-19T10:34:38;34.10;1.00
1592;DHT22;789;51.612;7.510;2022-08-19T10:37:05;33.30;1.00
1592;DHT22;789;51.612;7.510;2022-08-19T10:39:33;32.70;1.00
1592;DHT22;789;51.612;7.510;2022-08-19T10:42:04;32.70;1.00
1592;DHT22;789;51.612;7.510;2022-08-19T10:44:32;33.50;1.00
1592;DHT22;789;51.612;7.510;2022-08-19T10:47:00;34.80;1.00
1592;DHT22;789;51.612;7.510;2022-08-19T10:49:29;36.00;1.00
1592;DHT22;789;51.612;7.510;2022-08-19T10:51:58;36.50;1.00
1592;DHT22;789;51.612;7.510;2022-08-19T10:54:42;37.00;1.00
1592;DHT22;789;51.612;7.510;2022-08-19T10:57:30;37.90;1.00
1592;DHT22;789;51.612;7.510;2022-08-19T10:59:57;38.70;1.00
1592;DHT22;789;51.612;7.510;2022-08-19T11:02:24;38.60;1.00
1592;DHT22;789;51.612;7.510;2022-08-19T11:04:52;38.40;1.00
1592;DHT22;789;51.612;7.510;2022-08-19T11:07:19;38.80;1.00
1592;DHT22;789;51.612;7.510;2022-08-19T11:09:46;39.00;1.00
1592;DHT22;789;51.612;7.510;2022-08-19T11:12:13;39.30;1.00
1592;DHT22;789;51.612;7.510;2022-08-19T11:14:40;39.10;1.00
1592;DHT22;789;51.612;7.510;2022-08-19T11:17:07;38.90;1.00
1592;DHT22;789;51.612;7.510;2022-08-19T11:19:34;39.10;1.00
1592;DHT22;789;51.612;7.510;2022-08-19T11:22:03;39.00;1.00
1592;DHT22;789;51.612;7.510;2022-08-19T11:24:30;39.00;1.00
1592;DHT22;789;51.612;7.510;2022-08-19T11:27:02;39.60;1.00
1592;DHT22;789;51.612;7.510;2022-08-19T11:29:30;39.20;1.00
1592;DHT22;789;51.612;7.510;2022-08-19T11:31:58;39.50;1.00
1592;DHT22;789;51.612;7.510;2022-08-19T11:34:27;40.00;1.00
1592;DHT22;789;51.612;7.510;2022-08-19T11:36:55;40.40;1.00
1592;DHT22;789;51.612;7.510;2022-08-19T11:39:27;41.30;1.00
1592;DHT22;789;51.612;7.510;2022-08-19T11:41:54;41.20;1.00
1592;DHT22;789;51.612;7.510;2022-08-19T11:44:21;41.10;1.00
1592;DHT22;789;51.612;7.510;2022-08-19T11:46:48;40.70;1.00
1592;DHT22;789;51.612;7.510;2022-08-19T11:49:17;40.50;1.00
1592;DHT22;789;51.612;7.510;2022-08-19T11:51:45;40.60;1.00
1592;DHT22;789;51.612;7.510;2022-08-19T11:54:13;40.50;1.00
1592;DHT22;789;51.612;7.510;2022-08-19T11:56:43;40.00;1.00
1592;DHT22;789;51.612;7.510;2022-08-19T11:59:11;40.00;1.00
1592;DHT22;789;51.612;7.510;2022-08-19T12:01:38;39.70;1.00
1592;DHT22;789;51.612;7.510;2022-08-19T12:04:06;39.30;1.00
1592;DHT22;789;51.612;7.510;2022-08-19T12:06:33;38.60;1.00
1592;DHT22;789;51.612;7.510;2022-08-19T12:09:04;37.60;1.00
1592;DHT22;789;51.612;7.510;2022-08-19T12:11:31;36.60;1.00
1592;DHT22;789;51.612;7.510;2022-08-19T12:13:59;35.40;1.00
1592;DHT22;789;51.612;7.510;2022-08-19T12:16:28;34.70;1.00
1592;DHT22;789;51.612;7.510;2022-08-19T12:18:56;34.20;1.00
1592;DHT22;789;51.612;7.510;2022-08-19T12:21:26;33.50;1.00
1592;DHT22;789;51.612;7.510;2022-08-19T12:23:55;32.90;1.00
1592;DHT22;789;51.612;7.510;2022-08-19T12:26:22;32.60;1.00
1592;DHT22;789;51.612;7.510;2022-08-19T12:28:49;32.40;1.00
1592;DHT22;789;51.612;7.510;2022-08-19T12:31:18;32.30;1.00
1592;DHT22;789;51.612;7.510;2022-08-19T12:33:46;32.40;1.00
1592;DHT22;789;51.612;7.510;2022-08-19T12:36:14;32.30;1.00
1592;DHT22;789;51.612;7.510;2022-08-19T12:38:43;32.30;1.00
1592;DHT22;789;51.612;7.510;2022-08-19T12:41:12;32.20;1.00
1592;DHT22;789;51.612;7.510;2022-08-19T12:43:39;32.10;1.00
1592;DHT22;789;51.612;7.510;2022-08-19T12:46:06;32.10;1.00
1592;DHT22;789;51.612;7.510;2022-08-19T12:48:35;32.20;1.00
1592;DHT22;789;51.612;7.510;2022-08-19T12:51:06;32.20;1.00
1592;DHT22;789;51.612;7.510;2022-08-19T12:53:33;32.10;1.00
1592;DHT22;789;51.612;7.510;2022-08-19T12:56:01;32.10;1.00
1592;DHT22;789;51.612;7.510;2022-08-19T12:58:29;32.20;1.00
1592;DHT22;789;51.612;7.510;2022-08-19T13:00:56;32.20;1.00
1592;DHT22;789;51.612;7.510;2022-08-19T13:03:28;32.10;1.00
1592;DHT22;789;51.612;7.510;2022-08-19T13:05:56;31.80;1.00
1592;DHT22;789;51.612;7.510;2022-08-19T13:08:23;31.50;1.00
1592;DHT22;789;51.612;7.510;2022-08-19T13:10:50;31.50;1.00
1592;DHT22;789;51.612;7.510;2022-08-19T13:13:17;31.40;1.00
1592;DHT22;789;51.612;7.510;2022-08-19T13:15:43;31.40;1.00
1592;DHT22;789;51.612;7.510;2022-08-19T13:18:11;31.30;1.00
1592;DHT22;789;51.612;7.510;2022-08-19T13:20:39;31.10;1.00
1592;DHT22;789;51.612;7.510;2022-08-19T13:23:08;31.00;1.00
1592;DHT22;789;51.612;7.510;2022-08-19T13:25:35;31.00;1.00
1592;DHT22;789;51.612;7.510;2022-08-19T13:28:03;30.80;1.00
1592;DHT22;789;51.612;7.510;2022-08-19T13:30:32;30.80;1.00
1592;DHT22;789;51.612;7.510;2022-08-19T13:33:16;30.80;1.00
1592;DHT22;789;51.612;7.510;2022-08-19T13:35:46;30.80;1.00
1592;DHT22;789;51.612;7.510;2022-08-19T13:38:16;30.80;1.00
1592;DHT22;789;51.612;7.510;2022-08-19T13:40:44;30.90;1.00
1592;DHT22;789;51.612;7.510;2022-08-19T13:43:11;30.80;1.00
1592;DHT22;789;51.612;7.510;2022-08-19T13:45:39;30.70;1.00
1592;DHT22;789;51.612;7.510;2022-08-19T13:48:06;30.70;1.00
1592;DHT22;789;51.612;7.510;2022-08-19T13:50:37;30.70;1.00
1592;DHT22;789;51.612;7.510;2022-08-19T13:53:05;30.80;1.00
1592;DHT22;789;51.612;7.510;2022-08-19T13:55:33;30.80;1.00
1592;DHT22;789;51.612;7.510;2022-08-19T13:58:01;30.80;1.00
1592;DHT22;789;51.612;7.510;2022-08-19T14:00:31;30.90;1.00
1592;DHT22;789;51.612;7.510;2022-08-19T14:02:58;30.80;1.00
1592;DHT22;789;51.612;7.510;2022-08-19T14:05:26;30.90;1.00
1592;DHT22;789;51.612;7.510;2022-08-19T14:07:54;30.80;1.00
1592;DHT22;789;51.612;7.510;2022-08-19T14:10:21;30.80;1.00
1592;DHT22;789;51.612;7.510;2022-08-19T14:12:53;30.80;1.00
1592;DHT22;789;51.612;7.510;2022-08-19T14:15:21;30.70;1.00
1592;DHT22;789;51.612;7.510;2022-08-19T14:17:50;30.70;1.00
1592;DHT22;789;51.612;7.510;2022-08-19T14:20:18;30.60;1.00
1592;DHT22;789;51.612;7.510;2022-08-19T14:22:46;30.50;1.00
1592;DHT22;789;51.612;7.510;2022-08-19T14:25:15;30.50;1.00
1592;DHT22;789;51.612;7.510;2022-08-19T14:27:42;30.50;1.00
1592;DHT22;789;51.612;7.510;2022-08-19T14:30:13;30.60;1.00
1592;DHT22;789;51.612;7.510;2022-08-19T14:32:40;30.50;1.00
1592;DHT22;789;51.612;7.510;2022-08-19T14:35:09;30.50;1.00
1592;DHT22;789;51.612;7.510;2022-08-19T14:37:38;30.60;1.00
1592;DHT22;789;51.612;7.510;2022-08-19T14:40:06;30.60;1.00
1592;DHT22;789;51.612;7.510;2022-08-19T14:42:33;30.70;1.00
1592;DHT22;789;51.612;7.510;2022-08-19T14:45:01;30.80;1.00
1592;DHT22;789;51.612;7.510;2022-08-19T14:47:29;30.80;1.00
1592;DHT22;789;51.612;7.510;2022-08-19T14:49:56;30.80;1.00
1592;DHT22;789;51.612;7.510;2022-08-19T14:52:22;30.80;1.00
1592;DHT22;789;51.612;7.510;2022-08-19T14:54:49;30.80;1.00
1592;DHT22;789;51.612;7.510;2022-08-19T14:57:17;30.80;1.00
1592;DHT22;789;51.612;7.510;2022-08-19T14:59:43;30.70;1.00
1592;DHT22;789;51.612;7.510;2022-08-19T15:02:11;30.60;1.00
1592;DHT22;789;51.612;7.510;2022-08-19T15:04:39;30.50;1.00
1592;DHT22;789;51.612;7.510;2022-08-19T15:07:06;30.40;1.00
1592;DHT22;789;51.612;7.510;2022-08-19T15:09:33;30.30;1.00
1592;DHT22;789;51.612;7.510;2022-08-19T15:12:00;30.10;1.00
1592;DHT22;789;51.612;7.510;2022-08-19T15:14:28;30.10;1.00
1592;DHT22;789;51.612;7.510;2022-08-19T15:27:22;30.10;1.00
1592;DHT22;789;51.612;7.510;2022-08-19T15:29:49;29.80;1.00
1592;DHT22;789;51.612;7.510;2022-08-19T15:32:16;29.80;1.00
1592;DHT22;789;51.612;7.510;2022-08-19T15:34:46;29.90;1.00
1592;DHT22;789;51.612;7.510;2022-08-19T15:37:14;30.00;1.00
1592;DHT22;789;51.612;7.510;2022-08-19T15:39:41;30.00;1.00
1592;DHT22;789;51.612;7.510;2022-08-19T15:42:08;30.00;1.00
1592;DHT22;789;51.612;7.510;2022-08-19T15:44:36;30.10;1.00
1592;DHT22;789;51.612;7.510;2022-08-19T15:47:03;30.00;1.00
1592;DHT22;789;51.612;7.510;2022-08-19T15:49:30;30.10;1.00
1592;DHT22;789;51.612;7.510;2022-08-19T15:51:57;30.10;1.00
1592;DHT22;789;51.612;7.510;2022-08-19T15:54:26;30.10;1.00
1592;DHT22;789;51.612;7.510;2022-08-19T15:56:55;30.10;1.00
1592;DHT22;789;51.612;7.510;2022-08-19T15:59:41;29.90;1.00
1592;DHT22;789;51.612;7.510;2022-08-19T16:02:27;29.80;1.00
1592;DHT22;789;51.612;7.510;2022-08-19T16:05:14;29.60;1.00
1592;DHT22;789;51.612;7.510;2022-08-19T16:07:59;29.60;1.00
1592;DHT22;789;51.612;7.510;2022-08-19T16:10:26;29.60;1.00
1592;DHT22;789;51.612;7.510;2022-08-19T16:12:54;29.60;1.00
1592;DHT22;789;51.612;7.510;2022-08-19T16:15:22;29.70;1.00
1592;DHT22;789;51.612;7.510;2022-08-19T16:17:49;29.60;1.00
1592;DHT22;789;51.612;7.510;2022-08-19T16:20:16;29.50;1.00
1592;DHT22;789;51.612;7.510;2022-08-19T16:22:44;29.30;1.00
1592;DHT22;789;51.612;7.510;2022-08-19T16:25:11;29.30;1.00
1592;DHT22;789;51.612;7.510;2022-08-19T16:27:38;29.20;1.00
1592;DHT22;789;51.612;7.510;2022-08-19T16:30:07;29.30;1.00
1592;DHT22;789;51.612;7.510;2022-08-19T16:32:35;29.30;1.00
1592;DHT22;789;51.612;7.510;2022-08-19T16:35:03;29.30;1.00
1592;DHT22;789;51.612;7.510;2022-08-19T16:37:31;29.30;1.00
1592;DHT22;789;51.612;7.510;2022-08-19T16:39:58;29.20;1.00
1592;DHT22;789;51.612;7.510;2022-08-19T16:42:25;29.20;1.00
1592;DHT22;789;51.612;7.510;2022-08-19T16:44:52;29.20;1.00
1592;DHT22;789;51.612;7.510;2022-08-19T16:47:20;29.20;1.00
1592;DHT22;789;51.612;7.510;2022-08-19T16:49:48;29.20;1.00
1592;DHT22;789;51.612;7.510;2022-08-19T16:52:15;29.30;1.00
1592;DHT22;789;51.612;7.510;2022-08-19T16:54:42;29.20;1.00
1592;DHT22;789;51.612;7.510;2022-08-19T16:57:08;29.10;1.00